MucHOS Mas — WDJ3261 — position and weather

sailwx.info

Track history (hours):
 
Tides and Currents Weather Stations Pressure Air Temp Water Temp Dewpoint Dewpoint Depression Visibility Wind Speed Wind Dir Waves Ship Positions

MucHOS Mas

Owner: Leucadendra Marine Holdings, LLC, Coral Gables, FL. More information available from US FCC via Universal Licensing System and Coast Guard Vessel Documentation Center.

Last reported at 2018-Jul-03 07:55 UTC. Time now 2018-Jul-23 15:35 UTC.
Position N 42°51' E 009°46'.
Warning: this ship's position is 20 days out of date.

Length 43 m.

Type: Pleasure craft. MMSI: 369210000.

Date/timePositionNaut miles runAvg speedWind from/ knotsBaromVisibWave heightAir tempDewpointWater temp
2018-Jul-03 07:55N 42°51' E 009°46'21911.8
2018-Jul-02 13:21N 40°49' E 013°49'411.5
2018-Jul-02 13:00N 40°47' E 013°53'611.5
2018-Jul-02 12:30N 40°44' E 013°60'611.4
2018-Jul-02 12:00N 40°44' E 014°07'611.2
2018-Jul-02 11:30N 40°44' E 014°15'611.4
2018-Jul-02 11:00N 40°43' E 014°22'5 9.6
2018-Jul-02 10:31N 40°43' E 014°28'0 0.0
2018-Jul-01 08:53N 40°43' E 014°28'2 4.9
2018-Jul-01 08:30N 40°42' E 014°26'611.3
2018-Jul-01 08:00N 40°39' E 014°21'611.0
2018-Jul-01 07:30N 40°34' E 014°17'1 2.2
2018-Jul-01 06:58N 40°33' E 014°16'0 0.0
2018-Jul-01 06:28N 40°33' E 014°16'0 0.0
2018-Jul-01 05:52N 40°33' E 014°16'0 0.0
2018-Jul-01 05:26N 40°33' E 014°16'0 0.0
2018-Jul-01 04:58N 40°33' E 014°16'0 0.0
2018-Jul-01 04:28N 40°33' E 014°16'0 0.0
2018-Jul-01 03:55N 40°33' E 014°16'0 0.0
2018-Jul-01 03:29N 40°33' E 014°16'0 0.0
2018-Jul-01 02:59N 40°33' E 014°16'0 0.0
2018-Jul-01 02:28N 40°33' E 014°16'0 0.0
2018-Jul-01 01:55N 40°33' E 014°16'0 0.0
2018-Jul-01 01:29N 40°33' E 014°16'0 0.0
2018-Jul-01 00:59N 40°33' E 014°16'0 0.0
2018-Jul-01 00:29N 40°33' E 014°16'0 0.0
2018-Jun-30 23:59N 40°33' E 014°16'0 0.0
2018-Jun-30 23:29N 40°33' E 014°16'0 0.0
2018-Jun-30 22:58N 40°33' E 014°16'0 0.0
2018-Jun-30 22:29N 40°33' E 014°16'0 0.0
2018-Jun-30 21:58N 40°33' E 014°16'0 0.0
2018-Jun-30 21:29N 40°33' E 014°16'0 0.0
2018-Jun-30 20:59N 40°33' E 014°16'0 0.1
2018-Jun-30 20:28N 40°33' E 014°16'0 0.0
2018-Jun-30 19:58N 40°33' E 014°16'0 0.1
2018-Jun-30 19:28N 40°33' E 014°16'0 0.0
2018-Jun-30 18:58N 40°33' E 014°16'0 0.0
2018-Jun-30 18:28N 40°33' E 014°16'0 0.1
2018-Jun-30 17:58N 40°33' E 014°16'0 0.0
2018-Jun-30 17:28N 40°33' E 014°16'0 0.0
2018-Jun-30 16:58N 40°33' E 014°16'0 0.0
2018-Jun-30 16:25N 40°33' E 014°16'0 0.0
2018-Jun-30 15:58N 40°33' E 014°16'0 0.0
2018-Jun-30 15:28N 40°33' E 014°16'0 0.0
2018-Jun-30 14:55N 40°33' E 014°16'0 0.0
2018-Jun-30 14:28N 40°33' E 014°16'0 0.1
2018-Jun-30 14:01N 40°33' E 014°16'2 3.1
2018-Jun-30 13:31N 40°34' E 014°14'0 0.0
2018-Jun-30 13:00N 40°34' E 014°14'0 0.0
2018-Jun-30 12:31N 40°34' E 014°14'0 0.0
2018-Jun-30 12:01N 40°34' E 014°14'1 2.0
2018-Jun-30 11:30N 40°34' E 014°15'510.8
2018-Jun-30 11:00N 40°34' E 014°22'611.1
2018-Jun-30 10:30N 40°35' E 014°29'7 0.3
2018-Jun-29 06:58N 40°36' E 014°38'129 3.7
2018-Jun-27 19:57N 38°29' E 014°59'1 0.2
2018-Jun-27 11:29N 38°28' E 014°58'3 0.7
2018-Jun-27 07:38N 38°25' E 014°59'12210.6
2018-Jun-26 20:09N 40°25' E 014°32'210.2
2018-Jun-26 19:57N 40°28' E 014°31'510.0
2018-Jun-26 19:30N 40°32' E 014°31'510.2
2018-Jun-26 19:00N 40°37' E 014°30'0 0.6
2018-Jun-26 18:29N 40°37' E 014°30'0 0.1
2018-Jun-26 17:59N 40°37' E 014°30'0 0.1
2018-Jun-26 17:29N 40°37' E 014°30'0 0.0
2018-Jun-26 16:59N 40°37' E 014°30'0 0.0
2018-Jun-26 15:59N 40°37' E 014°30'0 0.1
2018-Jun-26 15:26N 40°37' E 014°30'0 0.0
2018-Jun-26 14:56N 40°37' E 014°30'0 0.0
2018-Jun-26 14:29N 40°37' E 014°30'0 0.0
2018-Jun-26 13:53N 40°37' E 014°30'0 0.1
2018-Jun-26 13:29N 40°37' E 014°30'0 0.0
2018-Jun-26 12:59N 40°37' E 014°30'0 0.0
2018-Jun-26 12:29N 40°37' E 014°30'0 0.0
2018-Jun-26 11:59N 40°37' E 014°30'0 0.0
2018-Jun-26 11:26N 40°37' E 014°30'0 0.0
2018-Jun-26 10:59N 40°37' E 014°30'2 3.3
2018-Jun-26 10:30N 40°37' E 014°28'510.7
2018-Jun-26 10:00N 40°34' E 014°22'510.5
2018-Jun-26 09:30N 40°32' E 014°15'1 1.6
2018-Jun-26 09:00N 40°32' E 014°14'0 0.0
2018-Jun-26 07:40N 40°32' E 014°14'0 0.1
2018-Jun-26 07:13N 40°32' E 014°14'0 0.0
2018-Jun-26 06:44N 40°32' E 014°14'0 0.0
2018-Jun-26 06:16N 40°32' E 014°14'0 0.1
2018-Jun-26 05:43N 40°32' E 014°14'0 0.1
2018-Jun-26 05:20N 40°32' E 014°14'0 0.0
2018-Jun-26 04:42N 40°32' E 014°14'0 0.0
2018-Jun-26 04:22N 40°32' E 014°14'0 0.0
2018-Jun-26 03:28N 40°32' E 014°14'0 0.0
2018-Jun-26 02:55N 40°32' E 014°14'0 0.0
2018-Jun-26 02:30N 40°32' E 014°14'0 0.0
2018-Jun-26 01:57N 40°32' E 014°14'0 0.0
2018-Jun-26 01:30N 40°32' E 014°14'0 0.0
2018-Jun-25 23:22N 40°32' E 014°14'0 0.0
2018-Jun-25 22:04N 40°32' E 014°14'0 0.2
2018-Jun-25 21:56N 40°32' E 014°14'0 0.0
2018-Jun-25 21:29N 40°32' E 014°14'0 0.0
2018-Jun-25 18:37N 40°32' E 014°14'0 0.0
2018-Jun-25 17:25N 40°32' E 014°14'0 0.2
2018-Jun-25 16:58N 40°32' E 014°14'0 0.0
2018-Jun-25 16:26N 40°32' E 014°14'0 0.1
2018-Jun-25 15:59N 40°32' E 014°14'0 0.1
2018-Jun-25 15:30N 40°32' E 014°14'0 0.1
2018-Jun-25 14:59N 40°32' E 014°14'0 0.2
2018-Jun-25 14:30N 40°33' E 014°14'0 0.0
2018-Jun-25 14:01N 40°33' E 014°14'0 0.0
2018-Jun-25 13:29N 40°33' E 014°14'0 0.0
2018-Jun-25 12:59N 40°33' E 014°14'0 0.0
2018-Jun-25 12:30N 40°33' E 014°14'0 0.1
2018-Jun-25 12:00N 40°33' E 014°14'1 2.9
2018-Jun-25 11:30N 40°34' E 014°14'1 2.0
2018-Jun-25 10:58N 40°34' E 014°13'0 0.0
2018-Jun-25 10:28N 40°34' E 014°12'0 0.1
2018-Jun-25 09:58N 40°34' E 014°12'0 0.0
2018-Jun-25 09:30N 40°34' E 014°12'2 3.6
2018-Jun-25 09:01N 40°33' E 014°15'0 0.0
2018-Jun-25 08:28N 40°33' E 014°15'0 0.0
2018-Jun-25 07:58N 40°33' E 014°15'0 0.0
2018-Jun-25 07:28N 40°33' E 014°15'0 0.0
2018-Jun-25 06:58N 40°33' E 014°15'0 0.0
2018-Jun-25 06:28N 40°33' E 014°15'0 0.0
2018-Jun-25 05:58N 40°33' E 014°15'0 0.0
2018-Jun-25 05:28N 40°33' E 014°15'0 0.0
2018-Jun-25 04:58N 40°33' E 014°15'0 0.0
2018-Jun-25 04:28N 40°33' E 014°15'0 0.0
2018-Jun-25 03:58N 40°33' E 014°15'0 0.0
2018-Jun-25 03:28N 40°33' E 014°15'0 0.0
2018-Jun-25 02:58N 40°33' E 014°15'0 0.0
2018-Jun-25 02:28N 40°33' E 014°15'0 0.0
2018-Jun-25 01:40N 40°33' E 014°15'0 0.0
2018-Jun-25 01:25N 40°33' E 014°15'0 0.0
2018-Jun-25 00:58N 40°33' E 014°15'0 0.0
2018-Jun-25 00:28N 40°33' E 014°15'0 0.0
2018-Jun-24 23:58N 40°33' E 014°15'0 0.0
2018-Jun-24 23:28N 40°33' E 014°15'0 0.0
2018-Jun-24 22:58N 40°33' E 014°15'0 0.0
2018-Jun-24 22:25N 40°33' E 014°15'0 0.0
2018-Jun-24 21:58N 40°33' E 014°15'0 0.0
2018-Jun-24 21:28N 40°33' E 014°15'0 0.0
2018-Jun-24 20:58N 40°33' E 014°15'0 0.0
2018-Jun-24 20:28N 40°33' E 014°15'0 0.0
2018-Jun-24 19:58N 40°33' E 014°15'0 0.0
2018-Jun-24 19:28N 40°33' E 014°15'0 0.0
2018-Jun-24 18:58N 40°33' E 014°15'0 0.0
2018-Jun-24 18:28N 40°33' E 014°15'0 0.0
2018-Jun-24 17:58N 40°33' E 014°15'0 0.0
2018-Jun-24 17:28N 40°33' E 014°15'0 0.0
2018-Jun-24 16:58N 40°33' E 014°15'0 0.0
2018-Jun-24 16:28N 40°33' E 014°15'0 0.0
2018-Jun-24 15:58N 40°33' E 014°15'0 0.0
2018-Jun-24 15:28N 40°33' E 014°15'0 0.0
2018-Jun-24 14:58N 40°33' E 014°15'0 0.0
2018-Jun-24 14:28N 40°33' E 014°15'0 0.0
2018-Jun-24 14:00N 40°33' E 014°15'0 0.4
2018-Jun-24 13:30N 40°34' E 014°15'2 3.2
2018-Jun-24 13:00N 40°34' E 014°13'1 0.2
2018-Jun-24 08:08N 40°33' E 014°12'1 9.6
2018-Jun-24 08:00N 40°35' E 014°12'510.2
2018-Jun-24 07:30N 40°39' E 014°08'510.8
2018-Jun-24 07:00N 40°42' E 014°02'510.6
2018-Jun-24 06:30N 40°45' E 013°56'2 4.6
2018-Jun-24 05:59N 40°45' E 013°53'0 0.0
2018-Jun-24 05:30N 40°45' E 013°53'0 0.0
2018-Jun-24 05:00N 40°45' E 013°53'0 0.0
2018-Jun-24 04:30N 40°45' E 013°53'0 0.0
2018-Jun-24 04:00N 40°45' E 013°53'0 0.0
2018-Jun-24 03:30N 40°45' E 013°53'0 0.0
2018-Jun-24 03:00N 40°45' E 013°53'0 0.0
2018-Jun-24 02:30N 40°45' E 013°53'0 0.0
2018-Jun-24 02:01N 40°45' E 013°53'0 0.0
2018-Jun-24 01:30N 40°45' E 013°53'0 0.0
2018-Jun-24 01:00N 40°45' E 013°53'0 0.0
2018-Jun-24 00:30N 40°45' E 013°53'0 0.0
2018-Jun-24 00:00N 40°45' E 013°53'0 0.0
2018-Jun-23 23:30N 40°45' E 013°53'0 0.0
2018-Jun-23 22:59N 40°45' E 013°53'0 0.0
2018-Jun-23 22:30N 40°45' E 013°53'0 0.0
2018-Jun-23 22:00N 40°45' E 013°53'0 0.0
2018-Jun-23 21:30N 40°45' E 013°53'0 0.0
2018-Jun-23 21:00N 40°45' E 013°53'0 0.0
2018-Jun-23 20:28N 40°45' E 013°53'0 0.0
2018-Jun-23 20:00N 40°45' E 013°53'0 0.0
2018-Jun-23 19:30N 40°45' E 013°53'0 0.0
2018-Jun-23 19:00N 40°45' E 013°53'0 0.0
2018-Jun-23 18:30N 40°45' E 013°53'0 0.0
2018-Jun-23 17:59N 40°45' E 013°53'0 0.0
2018-Jun-23 17:30N 40°45' E 013°53'0 0.0
2018-Jun-23 17:00N 40°45' E 013°53'0 0.0
2018-Jun-23 16:30N 40°45' E 013°53'0 0.0
2018-Jun-23 16:00N 40°45' E 013°53'0 0.0
2018-Jun-23 15:30N 40°45' E 013°53'0 0.0
2018-Jun-23 15:00N 40°45' E 013°53'0 0.0
2018-Jun-23 14:30N 40°45' E 013°53'0 0.0
2018-Jun-23 14:00N 40°45' E 013°53'1 2.1
2018-Jun-23 13:29N 40°46' E 013°53'2 1.2
2018-Jun-23 12:02N 40°45' E 013°52'0 0.0
2018-Jun-23 10:35N 40°45' E 013°52'0 0.1
2018-Jun-23 10:30N 40°45' E 013°52'0 0.0
2018-Jun-23 09:57N 40°45' E 013°52'0 0.0
2018-Jun-23 09:08N 40°45' E 013°52'0 0.0
2018-Jun-23 08:56N 40°45' E 013°52'2 4.7
2018-Jun-23 08:27N 40°43' E 013°51'510.7
2018-Jun-23 08:01N 40°41' E 013°56'  
Track history (hours):
 
Tides and Currents Weather Stations Pressure Air Temp Water Temp Dewpoint Dewpoint Depression Visibility Wind Speed Wind Dir Waves Ship Positions

MucHOS Mas

Owner: Leucadendra Marine Holdings, LLC, Coral Gables, FL. More information available from US FCC via Universal Licensing System and Coast Guard Vessel Documentation Center.

Last reported at 2018-Jul-03 07:55 UTC. Time now 2018-Jul-23 15:35 UTC.
Position N 42°51' E 009°46'.
Warning: this ship's position is 20 days out of date.

Length 43 m.

Type: Pleasure craft. MMSI: 369210000.

Date/timePositionNaut miles runAvg speedWind from/ knotsBaromVisibWave heightAir tempDewpointWater temp
2018-Jul-03 07:55N 42°51' E 009°46'21911.8
2018-Jul-02 13:21N 40°49' E 013°49'411.5
2018-Jul-02 13:00N 40°47' E 013°53'611.5
2018-Jul-02 12:30N 40°44' E 013°60'611.4
2018-Jul-02 12:00N 40°44' E 014°07'611.2
2018-Jul-02 11:30N 40°44' E 014°15'611.4
2018-Jul-02 11:00N 40°43' E 014°22'5 9.6
2018-Jul-02 10:31N 40°43' E 014°28'0 0.0
2018-Jul-01 08:53N 40°43' E 014°28'2 4.9
2018-Jul-01 08:30N 40°42' E 014°26'611.3
2018-Jul-01 08:00N 40°39' E 014°21'611.0
2018-Jul-01 07:30N 40°34' E 014°17'1 2.2
2018-Jul-01 06:58N 40°33' E 014°16'0 0.0
2018-Jul-01 06:28N 40°33' E 014°16'0 0.0
2018-Jul-01 05:52N 40°33' E 014°16'0 0.0
2018-Jul-01 05:26N 40°33' E 014°16'0 0.0
2018-Jul-01 04:58N 40°33' E 014°16'0 0.0
2018-Jul-01 04:28N 40°33' E 014°16'0 0.0
2018-Jul-01 03:55N 40°33' E 014°16'0 0.0
2018-Jul-01 03:29N 40°33' E 014°16'0 0.0
2018-Jul-01 02:59N 40°33' E 014°16'0 0.0
2018-Jul-01 02:28N 40°33' E 014°16'0 0.0
2018-Jul-01 01:55N 40°33' E 014°16'0 0.0
2018-Jul-01 01:29N 40°33' E 014°16'0 0.0
2018-Jul-01 00:59N 40°33' E 014°16'0 0.0
2018-Jul-01 00:29N 40°33' E 014°16'0 0.0
2018-Jun-30 23:59N 40°33' E 014°16'0 0.0
2018-Jun-30 23:29N 40°33' E 014°16'0 0.0
2018-Jun-30 22:58N 40°33' E 014°16'0 0.0
2018-Jun-30 22:29N 40°33' E 014°16'0 0.0
2018-Jun-30 21:58N 40°33' E 014°16'0 0.0
2018-Jun-30 21:29N 40°33' E 014°16'0 0.0
2018-Jun-30 20:59N 40°33' E 014°16'0 0.1
2018-Jun-30 20:28N 40°33' E 014°16'0 0.0
2018-Jun-30 19:58N 40°33' E 014°16'0 0.1
2018-Jun-30 19:28N 40°33' E 014°16'0 0.0
2018-Jun-30 18:58N 40°33' E 014°16'0 0.0
2018-Jun-30 18:28N 40°33' E 014°16'0 0.1
2018-Jun-30 17:58N 40°33' E 014°16'0 0.0
2018-Jun-30 17:28N 40°33' E 014°16'0 0.0
2018-Jun-30 16:58N 40°33' E 014°16'0 0.0
2018-Jun-30 16:25N 40°33' E 014°16'0 0.0
2018-Jun-30 15:58N 40°33' E 014°16'0 0.0
2018-Jun-30 15:28N 40°33' E 014°16'0 0.0
2018-Jun-30 14:55N 40°33' E 014°16'0 0.0
2018-Jun-30 14:28N 40°33' E 014°16'0 0.1
2018-Jun-30 14:01N 40°33' E 014°16'2 3.1
2018-Jun-30 13:31N 40°34' E 014°14'0 0.0
2018-Jun-30 13:00N 40°34' E 014°14'0 0.0
2018-Jun-30 12:31N 40°34' E 014°14'0 0.0
2018-Jun-30 12:01N 40°34' E 014°14'1 2.0
2018-Jun-30 11:30N 40°34' E 014°15'510.8
2018-Jun-30 11:00N 40°34' E 014°22'611.1
2018-Jun-30 10:30N 40°35' E 014°29'7 0.3
2018-Jun-29 06:58N 40°36' E 014°38'129 3.7
2018-Jun-27 19:57N 38°29' E 014°59'1 0.2
2018-Jun-27 11:29N 38°28' E 014°58'3 0.7
2018-Jun-27 07:38N 38°25' E 014°59'12210.6
2018-Jun-26 20:09N 40°25' E 014°32'210.2
2018-Jun-26 19:57N 40°28' E 014°31'510.0
2018-Jun-26 19:30N 40°32' E 014°31'510.2
2018-Jun-26 19:00N 40°37' E 014°30'0 0.6
2018-Jun-26 18:29N 40°37' E 014°30'0 0.1
2018-Jun-26 17:59N 40°37' E 014°30'0 0.1
2018-Jun-26 17:29N 40°37' E 014°30'0 0.0
2018-Jun-26 16:59N 40°37' E 014°30'0 0.0
2018-Jun-26 15:59N 40°37' E 014°30'0 0.1
2018-Jun-26 15:26N 40°37' E 014°30'0 0.0
2018-Jun-26 14:56N 40°37' E 014°30'0 0.0
2018-Jun-26 14:29N 40°37' E 014°30'0 0.0
2018-Jun-26 13:53N 40°37' E 014°30'0 0.1
2018-Jun-26 13:29N 40°37' E 014°30'0 0.0
2018-Jun-26 12:59N 40°37' E 014°30'0 0.0
2018-Jun-26 12:29N 40°37' E 014°30'0 0.0
2018-Jun-26 11:59N 40°37' E 014°30'0 0.0
2018-Jun-26 11:26N 40°37' E 014°30'0 0.0
2018-Jun-26 10:59N 40°37' E 014°30'2 3.3
2018-Jun-26 10:30N 40°37' E 014°28'510.7
2018-Jun-26 10:00N 40°34' E 014°22'510.5
2018-Jun-26 09:30N 40°32' E 014°15'1 1.6
2018-Jun-26 09:00N 40°32' E 014°14'0 0.0
2018-Jun-26 07:40N 40°32' E 014°14'0 0.1
2018-Jun-26 07:13N 40°32' E 014°14'0 0.0
2018-Jun-26 06:44N 40°32' E 014°14'0 0.0
2018-Jun-26 06:16N 40°32' E 014°14'0 0.1
2018-Jun-26 05:43N 40°32' E 014°14'0 0.1
2018-Jun-26 05:20N 40°32' E 014°14'0 0.0
2018-Jun-26 04:42N 40°32' E 014°14'0 0.0
2018-Jun-26 04:22N 40°32' E 014°14'0 0.0
2018-Jun-26 03:28N 40°32' E 014°14'0 0.0
2018-Jun-26 02:55N 40°32' E 014°14'0 0.0
2018-Jun-26 02:30N 40°32' E 014°14'0 0.0
2018-Jun-26 01:57N 40°32' E 014°14'0 0.0
2018-Jun-26 01:30N 40°32' E 014°14'0 0.0
2018-Jun-25 23:22N 40°32' E 014°14'0 0.0
2018-Jun-25 22:04N 40°32' E 014°14'0 0.2
2018-Jun-25 21:56N 40°32' E 014°14'0 0.0
2018-Jun-25 21:29N 40°32' E 014°14'0 0.0
2018-Jun-25 18:37N 40°32' E 014°14'0 0.0
2018-Jun-25 17:25N 40°32' E 014°14'0 0.2
2018-Jun-25 16:58N 40°32' E 014°14'0 0.0
2018-Jun-25 16:26N 40°32' E 014°14'0 0.1
2018-Jun-25 15:59N 40°32' E 014°14'0 0.1
2018-Jun-25 15:30N 40°32' E 014°14'0 0.1
2018-Jun-25 14:59N 40°32' E 014°14'0 0.2
2018-Jun-25 14:30N 40°33' E 014°14'0 0.0
2018-Jun-25 14:01N 40°33' E 014°14'0 0.0
2018-Jun-25 13:29N 40°33' E 014°14'0 0.0
2018-Jun-25 12:59N 40°33' E 014°14'0 0.0
2018-Jun-25 12:30N 40°33' E 014°14'0 0.1
2018-Jun-25 12:00N 40°33' E 014°14'1 2.9
2018-Jun-25 11:30N 40°34' E 014°14'1 2.0
2018-Jun-25 10:58N 40°34' E 014°13'0 0.0
2018-Jun-25 10:28N 40°34' E 014°12'0 0.1
2018-Jun-25 09:58N 40°34' E 014°12'0 0.0
2018-Jun-25 09:30N 40°34' E 014°12'2 3.6
2018-Jun-25 09:01N 40°33' E 014°15'0 0.0
2018-Jun-25 08:28N 40°33' E 014°15'0 0.0
2018-Jun-25 07:58N 40°33' E 014°15'0 0.0
2018-Jun-25 07:28N 40°33' E 014°15'0 0.0
2018-Jun-25 06:58N 40°33' E 014°15'0 0.0
2018-Jun-25 06:28N 40°33' E 014°15'0 0.0
2018-Jun-25 05:58N 40°33' E 014°15'0 0.0
2018-Jun-25 05:28N 40°33' E 014°15'0 0.0
2018-Jun-25 04:58N 40°33' E 014°15'0 0.0
2018-Jun-25 04:28N 40°33' E 014°15'0 0.0
2018-Jun-25 03:58N 40°33' E 014°15'0 0.0
2018-Jun-25 03:28N 40°33' E 014°15'0 0.0
2018-Jun-25 02:58N 40°33' E 014°15'0 0.0
2018-Jun-25 02:28N 40°33' E 014°15'0 0.0
2018-Jun-25 01:40N 40°33' E 014°15'0 0.0
2018-Jun-25 01:25N 40°33' E 014°15'0 0.0
2018-Jun-25 00:58N 40°33' E 014°15'0 0.0
2018-Jun-25 00:28N 40°33' E 014°15'0 0.0
2018-Jun-24 23:58N 40°33' E 014°15'0 0.0
2018-Jun-24 23:28N 40°33' E 014°15'0 0.0
2018-Jun-24 22:58N 40°33' E 014°15'0 0.0
2018-Jun-24 22:25N 40°33' E 014°15'0 0.0
2018-Jun-24 21:58N 40°33' E 014°15'0 0.0
2018-Jun-24 21:28N 40°33' E 014°15'0 0.0
2018-Jun-24 20:58N 40°33' E 014°15'0 0.0
2018-Jun-24 20:28N 40°33' E 014°15'0 0.0
2018-Jun-24 19:58N 40°33' E 014°15'0 0.0
2018-Jun-24 19:28N 40°33' E 014°15'0 0.0
2018-Jun-24 18:58N 40°33' E 014°15'0 0.0
2018-Jun-24 18:28N 40°33' E 014°15'0 0.0
2018-Jun-24 17:58N 40°33' E 014°15'0 0.0
2018-Jun-24 17:28N 40°33' E 014°15'0 0.0
2018-Jun-24 16:58N 40°33' E 014°15'0 0.0
2018-Jun-24 16:28N 40°33' E 014°15'0 0.0
2018-Jun-24 15:58N 40°33' E 014°15'0 0.0
2018-Jun-24 15:28N 40°33' E 014°15'0 0.0
2018-Jun-24 14:58N 40°33' E 014°15'0 0.0
2018-Jun-24 14:28N 40°33' E 014°15'0 0.0
2018-Jun-24 14:00N 40°33' E 014°15'0 0.4
2018-Jun-24 13:30N 40°34' E 014°15'2 3.2
2018-Jun-24 13:00N 40°34' E 014°13'1 0.2
2018-Jun-24 08:08N 40°33' E 014°12'1 9.6
2018-Jun-24 08:00N 40°35' E 014°12'510.2
2018-Jun-24 07:30N 40°39' E 014°08'510.8
2018-Jun-24 07:00N 40°42' E 014°02'510.6
2018-Jun-24 06:30N 40°45' E 013°56'2 4.6
2018-Jun-24 05:59N 40°45' E 013°53'0 0.0
2018-Jun-24 05:30N 40°45' E 013°53'0 0.0
2018-Jun-24 05:00N 40°45' E 013°53'0 0.0
2018-Jun-24 04:30N 40°45' E 013°53'0 0.0
2018-Jun-24 04:00N 40°45' E 013°53'0 0.0
2018-Jun-24 03:30N 40°45' E 013°53'0 0.0
2018-Jun-24 03:00N 40°45' E 013°53'0 0.0
2018-Jun-24 02:30N 40°45' E 013°53'0 0.0
2018-Jun-24 02:01N 40°45' E 013°53'0 0.0
2018-Jun-24 01:30N 40°45' E 013°53'0 0.0
2018-Jun-24 01:00N 40°45' E 013°53'0 0.0
2018-Jun-24 00:30N 40°45' E 013°53'0 0.0
2018-Jun-24 00:00N 40°45' E 013°53'0 0.0
2018-Jun-23 23:30N 40°45' E 013°53'0 0.0
2018-Jun-23 22:59N 40°45' E 013°53'0 0.0
2018-Jun-23 22:30N 40°45' E 013°53'0 0.0
2018-Jun-23 22:00N 40°45' E 013°53'0 0.0
2018-Jun-23 21:30N 40°45' E 013°53'0 0.0
2018-Jun-23 21:00N 40°45' E 013°53'0 0.0
2018-Jun-23 20:28N 40°45' E 013°53'0 0.0
2018-Jun-23 20:00N 40°45' E 013°53'0 0.0
2018-Jun-23 19:30N 40°45' E 013°53'0 0.0
2018-Jun-23 19:00N 40°45' E 013°53'0 0.0
2018-Jun-23 18:30N 40°45' E 013°53'0 0.0
2018-Jun-23 17:59N 40°45' E 013°53'0 0.0
2018-Jun-23 17:30N 40°45' E 013°53'0 0.0
2018-Jun-23 17:00N 40°45' E 013°53'0 0.0
2018-Jun-23 16:30N 40°45' E 013°53'0 0.0
2018-Jun-23 16:00N 40°45' E 013°53'0 0.0
2018-Jun-23 15:30N 40°45' E 013°53'0 0.0
2018-Jun-23 15:00N 40°45' E 013°53'0 0.0
2018-Jun-23 14:30N 40°45' E 013°53'0 0.0
2018-Jun-23 14:00N 40°45' E 013°53'1 2.1
2018-Jun-23 13:29N 40°46' E 013°53'2 1.2
2018-Jun-23 12:02N 40°45' E 013°52'0 0.0
2018-Jun-23 10:35N 40°45' E 013°52'0 0.1
2018-Jun-23 10:30N 40°45' E 013°52'0 0.0
2018-Jun-23 09:57N 40°45' E 013°52'0 0.0
2018-Jun-23 09:08N 40°45' E 013°52'0 0.0
2018-Jun-23 08:56N 40°45' E 013°52'2 4.7
2018-Jun-23 08:27N 40°43' E 013°51'510.7
2018-Jun-23 08:01N 40°41' E 013°56'  

Dump ship's entire track history